sensor_id;sensor_type;location;lat;lon;timestamp;pressure;altitude;pressure_sealevel;temperature;humidity
43757;BME280;73222;41.866;12.462;2023-10-31T00:02:08;100362.84;;;22.27;100.00
43757;BME280;73222;41.866;12.462;2023-10-31T00:04:34;100365.72;;;22.22;100.00
43757;BME280;73222;41.866;12.462;2023-10-31T00:06:59;100365.19;;;22.16;100.00
43757;BME280;73222;41.866;12.462;2023-10-31T00:09:25;100374.78;;;22.17;100.00
43757;BME280;73222;41.866;12.462;2023-10-31T00:11:50;100375.94;;;22.11;100.00
43757;BME280;73222;41.866;12.462;2023-10-31T00:14:16;100387.19;;;22.15;100.00
43757;BME280;73222;41.866;12.462;2023-10-31T00:16:41;100386.25;;;22.16;100.00
43757;BME280;73222;41.866;12.462;2023-10-31T00:19:07;100402.91;;;22.16;100.00
43757;BME280;73222;41.866;12.462;2023-10-31T00:21:32;100410.91;;;22.15;100.00
43757;BME280;73222;41.866;12.462;2023-10-31T00:23:58;100416.03;;;22.18;100.00
43757;BME280;73222;41.866;12.462;2023-10-31T00:26:23;100417.91;;;22.16;100.00
43757;BME280;73222;41.866;12.462;2023-10-31T00:28:48;100439.91;;;22.15;100.00
43757;BME280;73222;41.866;12.462;2023-10-31T00:31:14;100438.28;;;22.12;100.00
43757;BME280;73222;41.866;12.462;2023-10-31T00:33:39;100451.53;;;21.91;100.00
43757;BME280;73222;41.866;12.462;2023-10-31T00:36:05;100440.00;;;21.75;100.00
43757;BME280;73222;41.866;12.462;2023-10-31T00:38:31;100437.03;;;21.62;100.00
43757;BME280;73222;41.866;12.462;2023-10-31T00:40:56;100425.22;;;21.51;100.00
43757;BME280;73222;41.866;12.462;2023-10-31T00:43:22;100413.38;;;21.41;100.00
43757;BME280;73222;41.866;12.462;2023-10-31T00:45:47;100410.38;;;21.30;100.00
43757;BME280;73222;41.866;12.462;2023-10-31T00:48:13;100392.34;;;21.20;100.00
43757;BME280;73222;41.866;12.462;2023-10-31T00:50:38;100389.84;;;21.17;100.00
43757;BME280;73222;41.866;12.462;2023-10-31T00:53:03;100390.34;;;21.06;100.00
43757;BME280;73222;41.866;12.462;2023-10-31T00:55:29;100380.66;;;21.07;100.00
43757;BME280;73222;41.866;12.462;2023-10-31T00:57:54;100376.66;;;20.98;100.00
43757;BME280;73222;41.866;12.462;2023-10-31T01:00:20;100367.97;;;20.96;100.00
43757;BME280;73222;41.866;12.462;2023-10-31T01:02:45;100356.72;;;20.92;100.00
43757;BME280;73222;41.866;12.462;2023-10-31T01:05:11;100349.91;;;20.88;100.00
43757;BME280;73222;41.866;12.462;2023-10-31T01:07:36;100345.69;;;20.84;100.00
43757;BME280;73222;41.866;12.462;2023-10-31T01:10:03;100354.66;;;20.78;100.00
43757;BME280;73222;41.866;12.462;2023-10-31T01:12:28;100363.63;;;20.74;100.00
43757;BME280;73222;41.866;12.462;2023-10-31T01:14:54;100366.44;;;20.69;100.00
43757;BME280;73222;41.866;12.462;2023-10-31T01:17:21;100371.25;;;20.59;100.00
43757;BME280;73222;41.866;12.462;2023-10-31T01:19:46;100359.22;;;20.54;100.00
43757;BME280;73222;41.866;12.462;2023-10-31T01:22:11;100361.03;;;20.52;100.00
43757;BME280;73222;41.866;12.462;2023-10-31T01:24:37;100358.69;;;20.45;100.00
43757;BME280;73222;41.866;12.462;2023-10-31T01:27:02;100367.59;;;20.41;100.00
43757;BME280;73222;41.866;12.462;2023-10-31T01:29:28;100367.97;;;20.32;100.00
43757;BME280;73222;41.866;12.462;2023-10-31T01:31:54;100368.94;;;20.29;100.00
43757;BME280;73222;41.866;12.462;2023-10-31T01:34:19;100376.78;;;20.31;100.00
43757;BME280;73222;41.866;12.462;2023-10-31T01:36:45;100392.94;;;20.22;100.00
43757;BME280;73222;41.866;12.462;2023-10-31T01:39:10;100398.19;;;20.22;100.00
43757;BME280;73222;41.866;12.462;2023-10-31T01:41:36;100406.25;;;20.17;100.00
43757;BME280;73222;41.866;12.462;2023-10-31T01:44:01;100412.50;;;20.14;100.00
43757;BME280;73222;41.866;12.462;2023-10-31T01:46:27;100413.50;;;20.10;100.00
43757;BME280;73222;41.866;12.462;2023-10-31T01:48:53;100426.84;;;20.06;100.00
43757;BME280;73222;41.866;12.462;2023-10-31T01:51:18;100423.47;;;20.02;100.00
43757;BME280;73222;41.866;12.462;2023-10-31T01:53:44;100424.56;;;19.96;100.00
43757;BME280;73222;41.866;12.462;2023-10-31T01:56:09;100437.94;;;19.88;100.00
43757;BME280;73222;41.866;12.462;2023-10-31T01:58:36;100437.16;;;19.86;100.00
43757;BME280;73222;41.866;12.462;2023-10-31T02:01:03;100443.09;;;19.91;100.00
43757;BME280;73222;41.866;12.462;2023-10-31T02:03:30;100451.91;;;19.90;100.00
43757;BME280;73222;41.866;12.462;2023-10-31T02:05:56;100459.09;;;19.85;100.00
43757;BME280;73222;41.866;12.462;2023-10-31T02:08:22;100462.75;;;19.81;100.00
43757;BME280;73222;41.866;12.462;2023-10-31T02:10:47;100467.16;;;19.81;100.00
43757;BME280;73222;41.866;12.462;2023-10-31T02:13:14;100480.44;;;19.76;100.00
43757;BME280;73222;41.866;12.462;2023-10-31T02:15:40;100473.59;;;19.72;100.00
43757;BME280;73222;41.866;12.462;2023-10-31T02:18:06;100479.88;;;19.68;100.00
43757;BME280;73222;41.866;12.462;2023-10-31T02:20:32;100477.47;;;19.61;100.00
43757;BME280;73222;41.866;12.462;2023-10-31T02:22:58;100482.72;;;19.61;100.00
43757;BME280;73222;41.866;12.462;2023-10-31T02:25:23;100487.22;;;19.58;100.00
43757;BME280;73222;41.866;12.462;2023-10-31T02:27:49;100488.31;;;19.52;100.00
43757;BME280;73222;41.866;12.462;2023-10-31T02:30:14;100498.19;;;19.45;100.00
43757;BME280;73222;41.866;12.462;2023-10-31T02:32:40;100500.84;;;19.44;100.00
43757;BME280;73222;41.866;12.462;2023-10-31T02:35:07;100499.22;;;19.40;100.00
43757;BME280;73222;41.866;12.462;2023-10-31T02:37:32;100500.22;;;19.37;100.00
43757;BME280;73222;41.866;12.462;2023-10-31T02:39:58;100502.84;;;19.37;100.00
43757;BME280;73222;41.866;12.462;2023-10-31T02:42:25;100495.94;;;19.34;100.00
43757;BME280;73222;41.866;12.462;2023-10-31T02:44:50;100503.03;;;19.31;100.00
43757;BME280;73222;41.866;12.462;2023-10-31T02:47:16;100510.13;;;19.29;100.00
43757;BME280;73222;41.866;12.462;2023-10-31T02:49:41;100507.63;;;19.24;100.00
43757;BME280;73222;41.866;12.462;2023-10-31T02:52:07;100508.44;;;19.26;100.00
43757;BME280;73222;41.866;12.462;2023-10-31T02:54:32;100508.53;;;19.23;100.00
43757;BME280;73222;41.866;12.462;2023-10-31T02:56:58;100512.06;;;19.22;100.00
43757;BME280;73222;41.866;12.462;2023-10-31T02:59:24;100507.84;;;19.18;100.00
43757;BME280;73222;41.866;12.462;2023-10-31T03:01:49;100505.25;;;19.18;100.00
43757;BME280;73222;41.866;12.462;2023-10-31T03:04:14;100508.84;;;19.14;100.00
43757;BME280;73222;41.866;12.462;2023-10-31T03:06:40;100512.50;;;19.10;100.00
43757;BME280;73222;41.866;12.462;2023-10-31T03:09:06;100511.63;;;19.09;100.00
43757;BME280;73222;41.866;12.462;2023-10-31T03:11:32;100516.03;;;19.08;100.00
43757;BME280;73222;41.866;12.462;2023-10-31T03:13:57;100514.31;;;19.07;100.00
43757;BME280;73222;41.866;12.462;2023-10-31T03:16:23;100514.31;;;19.07;100.00
43757;BME280;73222;41.866;12.462;2023-10-31T03:18:48;100512.59;;;19.06;100.00
43757;BME280;73222;41.866;12.462;2023-10-31T03:21:14;100510.88;;;19.05;100.00
43757;BME280;73222;41.866;12.462;2023-10-31T03:23:42;100510.88;;;19.05;100.00
43757;BME280;73222;41.866;12.462;2023-10-31T03:26:07;100512.56;;;19.08;100.00
43757;BME280;73222;41.866;12.462;2023-10-31T03:28:33;100505.44;;;19.12;100.00
43757;BME280;73222;41.866;12.462;2023-10-31T03:30:58;100498.47;;;19.11;100.00
43757;BME280;73222;41.866;12.462;2023-10-31T03:33:23;100501.84;;;19.14;100.00
43757;BME280;73222;41.866;12.462;2023-10-31T03:35:49;100489.38;;;19.21;100.00
43757;BME280;73222;41.866;12.462;2023-10-31T03:38:14;100496.53;;;19.16;100.00
43757;BME280;73222;41.866;12.462;2023-10-31T03:40:40;100495.66;;;19.17;100.00
43757;BME280;73222;41.866;12.462;2023-10-31T03:43:06;100489.69;;;19.12;100.00
43757;BME280;73222;41.866;12.462;2023-10-31T03:45:31;100475.66;;;19.13;100.00
43757;BME280;73222;41.866;12.462;2023-10-31T03:47:57;100451.03;;;19.17;100.00
43757;BME280;73222;41.866;12.462;2023-10-31T03:50:23;100436.09;;;19.19;100.00
43757;BME280;73222;41.866;12.462;2023-10-31T03:52:48;100424.25;;;19.32;100.00
43757;BME280;73222;41.866;12.462;2023-10-31T03:55:13;100418.28;;;19.29;100.00
43757;BME280;73222;41.866;12.462;2023-10-31T03:57:39;100417.06;;;19.38;100.00
43757;BME280;73222;41.866;12.462;2023-10-31T04:00:05;100411.06;;;19.34;100.00
43757;BME280;73222;41.866;12.462;2023-10-31T04:02:32;100407.66;;;19.32;100.00
43757;BME280;73222;41.866;12.462;2023-10-31T04:04:58;100404.84;;;19.36;100.00
43757;BME280;73222;41.866;12.462;2023-10-31T04:07:23;100396.47;;;19.50;100.00
43757;BME280;73222;41.866;12.462;2023-10-31T04:09:48;100397.50;;;19.46;100.00
43757;BME280;73222;41.866;12.462;2023-10-31T04:12:14;100393.09;;;19.47;100.00
43757;BME280;73222;41.866;12.462;2023-10-31T04:14:39;100392.81;;;19.55;100.00
43757;BME280;73222;41.866;12.462;2023-10-31T04:17:04;100392.44;;;19.42;100.00
43757;BME280;73222;41.866;12.462;2023-10-31T04:19:30;100405.78;;;19.35;100.00
43757;BME280;73222;41.866;12.462;2023-10-31T04:21:56;100403.47;;;19.26;100.00
43757;BME280;73222;41.866;12.462;2023-10-31T04:24:21;100405.56;;;19.16;100.00
43757;BME280;73222;41.866;12.462;2023-10-31T04:26:46;100404.81;;;19.13;100.00
43757;BME280;73222;41.866;12.462;2023-10-31T04:29:12;100400.59;;;19.08;100.00
43757;BME280;73222;41.866;12.462;2023-10-31T04:31:38;100404.28;;;19.03;100.00
43757;BME280;73222;41.866;12.462;2023-10-31T04:34:03;100408.69;;;19.02;100.00
43757;BME280;73222;41.866;12.462;2023-10-31T04:36:29;100410.47;;;19.00;100.00
43757;BME280;73222;41.866;12.462;2023-10-31T04:38:54;100412.25;;;19.00;100.00
43757;BME280;73222;41.866;12.462;2023-10-31T04:41:20;100412.16;;;19.03;100.00
43757;BME280;73222;41.866;12.462;2023-10-31T04:43:45;100411.31;;;19.02;100.00
43757;BME280;73222;41.866;12.462;2023-10-31T04:46:11;100407.03;;;18.98;100.00
43757;BME280;73222;41.866;12.462;2023-10-31T04:48:36;100402.69;;;18.97;100.00
43757;BME280;73222;41.866;12.462;2023-10-31T04:51:02;100406.25;;;18.96;100.00
43757;BME280;73222;41.866;12.462;2023-10-31T04:53:27;100412.34;;;18.97;100.00
43757;BME280;73222;41.866;12.462;2023-10-31T04:55:53;100404.53;;;18.95;100.00
43757;BME280;73222;41.866;12.462;2023-10-31T04:58:18;100417.69;;;18.93;100.00
43757;BME280;73222;41.866;12.462;2023-10-31T05:00:43;100415.44;;;19.10;100.00
43757;BME280;73222;41.866;12.462;2023-10-31T05:03:09;100434.75;;;19.07;100.00
43757;BME280;73222;41.866;12.462;2023-10-31T05:05:35;100421.47;;;19.12;100.00
43757;BME280;73222;41.866;12.462;2023-10-31T05:08:00;100430.16;;;19.14;100.00
43757;BME280;73222;41.866;12.462;2023-10-31T05:10:26;100432.97;;;19.07;100.00
43757;BME280;73222;41.866;12.462;2023-10-31T05:12:51;100431.97;;;19.12;100.00
43757;BME280;73222;41.866;12.462;2023-10-31T05:15:17;100425.66;;;19.17;100.00
43757;BME280;73222;41.866;12.462;2023-10-31T05:17:42;100431.84;;;19.15;100.00
43757;BME280;73222;41.866;12.462;2023-10-31T05:20:08;100441.13;;;19.25;100.00
43757;BME280;73222;41.866;12.462;2023-10-31T05:22:35;100446.56;;;19.20;100.00
43757;BME280;73222;41.866;12.462;2023-10-31T05:25:00;100438.59;;;19.22;100.00
43757;BME280;73222;41.866;12.462;2023-10-31T05:27:26;100443.53;;;19.31;100.00
43757;BME280;73222;41.866;12.462;2023-10-31T05:29:51;100448.72;;;19.33;100.00
43757;BME280;73222;41.866;12.462;2023-10-31T05:32:17;100442.06;;;19.48;100.00
43757;BME280;73222;41.866;12.462;2023-10-31T05:34:42;100426.56;;;19.66;100.00
43757;BME280;73222;41.866;12.462;2023-10-31T05:37:08;100429.28;;;19.62;100.00
43757;BME280;73222;41.866;12.462;2023-10-31T05:39:33;100436.81;;;19.72;100.00
43757;BME280;73222;41.866;12.462;2023-10-31T05:42:01;100435.81;;;19.76;100.00
43757;BME280;73222;41.866;12.462;2023-10-31T05:44:27;100437.25;;;19.85;100.00
43757;BME280;73222;41.866;12.462;2023-10-31T05:46:52;100447.50;;;19.91;100.00
43757;BME280;73222;41.866;12.462;2023-10-31T05:49:18;100447.34;;;19.96;100.00
43757;BME280;73222;41.866;12.462;2023-10-31T05:51:44;100458.53;;;20.01;100.00
43757;BME280;73222;41.866;12.462;2023-10-31T05:54:10;100456.84;;;20.00;100.00
43757;BME280;73222;41.866;12.462;2023-10-31T05:56:35;100466.97;;;20.09;100.00
43757;BME280;73222;41.866;12.462;2023-10-31T05:59:01;100469.16;;;20.22;100.00
43757;BME280;73222;41.866;12.462;2023-10-31T06:01:26;100463.06;;;20.20;100.00
43757;BME280;73222;41.866;12.462;2023-10-31T06:03:51;100469.81;;;20.27;100.00
43757;BME280;73222;41.866;12.462;2023-10-31T06:06:17;100460.91;;;20.31;100.00
43757;BME280;73222;41.866;12.462;2023-10-31T06:08:42;100460.78;;;20.34;100.00
43757;BME280;73222;41.866;12.462;2023-10-31T06:11:08;100455.03;;;20.47;100.00
43757;BME280;73222;41.866;12.462;2023-10-31T06:13:34;100450.69;;;20.45;100.00
43757;BME280;73222;41.866;12.462;2023-10-31T06:16:00;100446.88;;;20.53;100.00
43757;BME280;73222;41.866;12.462;2023-10-31T06:18:26;100448.66;;;20.52;100.00
43757;BME280;73222;41.866;12.462;2023-10-31T06:20:52;100451.09;;;20.57;100.00
43757;BME280;73222;41.866;12.462;2023-10-31T06:23:18;100448.41;;;20.58;100.00
43757;BME280;73222;41.866;12.462;2023-10-31T06:25:44;100453.69;;;20.58;100.00
43757;BME280;73222;41.866;12.462;2023-10-31T06:28:10;100465.72;;;20.64;100.00
43757;BME280;73222;41.866;12.462;2023-10-31T06:30:35;100459.03;;;20.55;100.00
43757;BME280;73222;41.866;12.462;2023-10-31T06:33:00;100464.00;;;20.63;100.00
43757;BME280;73222;41.866;12.462;2023-10-31T06:35:26;100461.56;;;20.58;100.00
43757;BME280;73222;41.866;12.462;2023-10-31T06:37:55;100466.00;;;20.56;100.00
43757;BME280;73222;41.866;12.462;2023-10-31T06:40:25;100470.53;;;20.53;100.00
43757;BME280;73222;41.866;12.462;2023-10-31T06:42:50;100478.44;;;20.53;100.00
43757;BME280;73222;41.866;12.462;2023-10-31T06:45:16;100484.59;;;20.52;100.00
43757;BME280;73222;41.866;12.462;2023-10-31T06:47:41;100488.06;;;20.54;100.00
43757;BME280;73222;41.866;12.462;2023-10-31T06:50:07;100495.81;;;20.57;100.00
43757;BME280;73222;41.866;12.462;2023-10-31T06:52:33;100497.69;;;20.53;100.00
43757;BME280;73222;41.866;12.462;2023-10-31T06:54:58;100502.97;;;20.53;100.00
43757;BME280;73222;41.866;12.462;2023-10-31T06:57:24;100493.00;;;20.62;100.00
43757;BME280;73222;41.866;12.462;2023-10-31T06:59:49;100498.31;;;20.60;100.00
43757;BME280;73222;41.866;12.462;2023-10-31T07:02:15;100494.78;;;20.61;100.00
43757;BME280;73222;41.866;12.462;2023-10-31T07:04:43;100492.94;;;20.63;100.00
43757;BME280;73222;41.866;12.462;2023-10-31T07:07:09;100499.22;;;20.59;100.00
43757;BME280;73222;41.866;12.462;2023-10-31T07:09:34;100500.84;;;20.63;100.00
43757;BME280;73222;41.866;12.462;2023-10-31T07:11:59;100509.50;;;20.65;100.00
43757;BME280;73222;41.866;12.462;2023-10-31T07:14:25;100512.91;;;20.67;100.00
43757;BME280;73222;41.866;12.462;2023-10-31T07:16:50;100510.28;;;20.67;100.00
43757;BME280;73222;41.866;12.462;2023-10-31T07:19:16;100515.50;;;20.69;100.00
43757;BME280;73222;41.866;12.462;2023-10-31T07:21:41;100495.38;;;20.68;100.00
43757;BME280;73222;41.866;12.462;2023-10-31T07:24:07;100501.47;;;20.68;100.00
43757;BME280;73222;41.866;12.462;2023-10-31T07:26:34;100488.47;;;20.65;100.00
43757;BME280;73222;41.866;12.462;2023-10-31T07:29:00;100498.06;;;20.66;100.00
43757;BME280;73222;41.866;12.462;2023-10-31T07:31:25;100500.63;;;20.68;100.00
43757;BME280;73222;41.866;12.462;2023-10-31T07:33:51;100512.00;;;20.68;100.00
43757;BME280;73222;41.866;12.462;2023-10-31T07:36:16;100513.75;;;20.69;100.00
43757;BME280;73222;41.866;12.462;2023-10-31T07:38:41;100517.22;;;20.70;100.00
43757;BME280;73222;41.866;12.462;2023-10-31T07:41:07;100536.41;;;20.72;100.00
43757;BME280;73222;41.866;12.462;2023-10-31T07:43:32;100545.31;;;20.69;100.00
43757;BME280;73222;41.866;12.462;2023-10-31T07:45:58;100548.72;;;20.71;100.00
43757;BME280;73222;41.866;12.462;2023-10-31T07:48:23;100548.81;;;20.68;100.00
43757;BME280;73222;41.866;12.462;2023-10-31T07:50:49;100546.00;;;20.73;100.00
43757;BME280;73222;41.866;12.462;2023-10-31T07:53:14;100545.03;;;20.76;100.00
43757;BME280;73222;41.866;12.462;2023-10-31T07:55:39;100519.69;;;20.73;100.00
43757;BME280;73222;41.866;12.462;2023-10-31T07:58:05;100504.78;;;20.73;100.00
43757;BME280;73222;41.866;12.462;2023-10-31T08:00:30;100505.53;;;20.77;100.00
43757;BME280;73222;41.866;12.462;2023-10-31T08:02:56;100493.25;;;20.78;100.00
43757;BME280;73222;41.866;12.462;2023-10-31T08:05:21;100512.28;;;20.84;100.00
43757;BME280;73222;41.866;12.462;2023-10-31T08:07:47;100520.16;;;20.84;100.00
43757;BME280;73222;41.866;12.462;2023-10-31T08:10:12;100533.28;;;20.86;100.00
43757;BME280;73222;41.866;12.462;2023-10-31T08:12:37;100520.56;;;20.73;100.00
43757;BME280;73222;41.866;12.462;2023-10-31T08:15:03;100518.88;;;20.72;100.00
43757;BME280;73222;41.866;12.462;2023-10-31T08:17:29;100503.22;;;20.69;100.00
43757;BME280;73222;41.866;12.462;2023-10-31T08:19:54;100508.34;;;20.72;100.00
43757;BME280;73222;41.866;12.462;2023-10-31T08:22:20;100504.38;;;20.84;100.00
43757;BME280;73222;41.866;12.462;2023-10-31T08:24:45;100513.13;;;20.85;100.00
43757;BME280;73222;41.866;12.462;2023-10-31T08:27:10;100527.09;;;20.87;100.00
43757;BME280;73222;41.866;12.462;2023-10-31T08:29:37;100518.63;;;20.79;100.00
43757;BME280;73222;41.866;12.462;2023-10-31T08:32:03;100525.28;;;20.88;100.00
43757;BME280;73222;41.866;12.462;2023-10-31T08:34:29;100536.63;;;20.90;100.00
43757;BME280;73222;41.866;12.462;2023-10-31T08:36:54;100549.31;;;21.00;100.00
43757;BME280;73222;41.866;12.462;2023-10-31T08:39:21;100570.81;;;21.33;100.00
43757;BME280;73222;41.866;12.462;2023-10-31T08:41:57;100585.31;;;21.64;100.00
43757;BME280;73222;41.866;12.462;2023-10-31T08:44:22;100569.00;;;21.35;100.00
43757;BME280;73222;41.866;12.462;2023-10-31T08:46:48;100571.22;;;21.23;100.00
43757;BME280;73222;41.866;12.462;2023-10-31T08:49:14;100579.44;;;21.16;100.00
43757;BME280;73222;41.866;12.462;2023-10-31T08:51:41;100574.22;;;21.14;100.00
43757;BME280;73222;41.866;12.462;2023-10-31T08:54:06;100577.94;;;21.31;100.00
43757;BME280;73222;41.866;12.462;2023-10-31T08:56:32;100576.06;;;21.55;100.00
43757;BME280;73222;41.866;12.462;2023-10-31T08:58:58;100592.84;;;21.73;100.00
43757;BME280;73222;41.866;12.462;2023-10-31T09:01:23;100610.50;;;21.92;100.00
43757;BME280;73222;41.866;12.462;2023-10-31T09:03:49;100612.69;;;21.82;100.00
43757;BME280;73222;41.866;12.462;2023-10-31T09:06:14;100610.41;;;21.74;100.00
43757;BME280;73222;41.866;12.462;2023-10-31T09:08:40;100613.66;;;22.00;100.00
43757;BME280;73222;41.866;12.462;2023-10-31T09:11:05;100609.31;;;21.78;100.00
43757;BME280;73222;41.866;12.462;2023-10-31T09:13:32;100607.06;;;21.90;100.00
43757;BME280;73222;41.866;12.462;2023-10-31T09:15:58;100619.72;;;21.81;100.00
43757;BME280;73222;41.866;12.462;2023-10-31T09:18:24;100609.03;;;22.05;100.00
43757;BME280;73222;41.866;12.462;2023-10-31T09:20:49;100626.00;;;22.19;100.00
43757;BME280;73222;41.866;12.462;2023-10-31T09:23:15;100618.47;;;21.90;100.00
43757;BME280;73222;41.866;12.462;2023-10-31T09:25:45;100631.19;;;22.01;100.00
43757;BME280;73222;41.866;12.462;2023-10-31T09:28:10;100629.22;;;22.06;100.00
43757;BME280;73222;41.866;12.462;2023-10-31T09:30:36;100640.78;;;21.81;100.00
43757;BME280;73222;41.866;12.462;2023-10-31T09:33:01;100626.66;;;21.41;100.00
43757;BME280;73222;41.866;12.462;2023-10-31T09:35:27;100646.16;;;21.37;100.00
43757;BME280;73222;41.866;12.462;2023-10-31T09:37:53;100650.38;;;21.62;100.00
43757;BME280;73222;41.866;12.462;2023-10-31T09:40:19;100656.88;;;21.75;100.00
43757;BME280;73222;41.866;12.462;2023-10-31T09:42:45;100660.56;;;21.92;100.00
43757;BME280;73222;41.866;12.462;2023-10-31T09:45:14;100658.19;;;21.86;100.00
43757;BME280;73222;41.866;12.462;2023-10-31T09:47:40;100660.34;;;22.17;100.00
43757;BME280;73222;41.866;12.462;2023-10-31T09:50:06;100665.28;;;22.25;100.00
43757;BME280;73222;41.866;12.462;2023-10-31T09:52:33;100663.81;;;22.39;100.00
43757;BME280;73222;41.866;12.462;2023-10-31T09:55:01;100662.56;;;22.07;100.00
43757;BME280;73222;41.866;12.462;2023-10-31T09:57:26;100658.06;;;21.89;100.00
43757;BME280;73222;41.866;12.462;2023-10-31T09:59:52;100654.63;;;21.87;100.00
43757;BME280;73222;41.866;12.462;2023-10-31T10:02:17;100665.25;;;22.06;100.00
43757;BME280;73222;41.866;12.462;2023-10-31T10:04:43;100665.41;;;22.22;100.00
43757;BME280;73222;41.866;12.462;2023-10-31T10:07:08;100664.81;;;22.36;100.00
43757;BME280;73222;41.866;12.462;2023-10-31T10:09:38;100667.69;;;22.10;100.00
43757;BME280;73222;41.866;12.462;2023-10-31T10:12:04;100665.84;;;21.49;100.00
43757;BME280;73222;41.866;12.462;2023-10-31T10:14:30;100679.38;;;21.62;100.00
43757;BME280;73222;41.866;12.462;2023-10-31T10:16:58;100679.53;;;21.79;100.00
43757;BME280;73222;41.866;12.462;2023-10-31T10:19:24;100689.53;;;22.13;100.00
43757;BME280;73222;41.866;12.462;2023-10-31T10:21:54;100682.13;;;22.62;100.00
43757;BME280;73222;41.866;12.462;2023-10-31T10:24:21;100663.06;;;21.95;100.00
43757;BME280;73222;41.866;12.462;2023-10-31T10:26:48;100663.13;;;21.93;100.00
43757;BME280;73222;41.866;12.462;2023-10-31T10:29:14;100682.25;;;22.59;100.00
43757;BME280;73222;41.866;12.462;2023-10-31T10:31:40;100684.19;;;23.68;100.00
43757;BME280;73222;41.866;12.462;2023-10-31T10:34:06;100684.34;;;25.48;100.00
43757;BME280;73222;41.866;12.462;2023-10-31T10:36:33;100680.09;;;25.90;100.00
43757;BME280;73222;41.866;12.462;2023-10-31T10:38:58;100681.78;;;26.37;100.00
43757;BME280;73222;41.866;12.462;2023-10-31T10:41:26;100674.31;;;26.58;100.00
43757;BME280;73222;41.866;12.462;2023-10-31T10:44:05;100678.78;;;24.90;100.00
43757;BME280;73222;41.866;12.462;2023-10-31T10:46:35;100681.16;;;24.11;100.00
43757;BME280;73222;41.866;12.462;2023-10-31T10:49:06;100673.72;;;25.48;100.00
43757;BME280;73222;41.866;12.462;2023-10-31T10:51:43;100667.16;;;24.92;100.00
43757;BME280;73222;41.866;12.462;2023-10-31T10:54:26;100653.94;;;27.00;100.00
43757;BME280;73222;41.866;12.462;2023-10-31T10:57:09;100673.78;;;25.16;100.00
43757;BME280;73222;41.866;12.462;2023-10-31T10:59:47;100676.00;;;23.90;100.00
43757;BME280;73222;41.866;12.462;2023-10-31T11:02:17;100667.34;;;24.55;100.00
43757;BME280;73222;41.866;12.462;2023-10-31T11:04:43;100669.66;;;23.77;100.00
43757;BME280;73222;41.866;12.462;2023-10-31T11:07:09;100669.50;;;22.88;100.00
43757;BME280;73222;41.866;12.462;2023-10-31T11:09:35;100668.50;;;22.72;100.00
43757;BME280;73222;41.866;12.462;2023-10-31T11:12:02;100671.03;;;24.01;100.00
43757;BME280;73222;41.866;12.462;2023-10-31T11:14:29;100667.63;;;25.31;100.00
43757;BME280;73222;41.866;12.462;2023-10-31T11:17:00;100657.13;;;24.49;100.00
43757;BME280;73222;41.866;12.462;2023-10-31T11:19:28;100653.56;;;23.46;100.00
43757;BME280;73222;41.866;12.462;2023-10-31T11:22:01;100653.78;;;23.94;100.00
43757;BME280;73222;41.866;12.462;2023-10-31T11:24:28;100654.28;;;25.33;84.35
43757;BME280;73222;41.866;12.462;2023-10-31T11:26:59;100646.47;;;23.82;95.55
43757;BME280;73222;41.866;12.462;2023-10-31T11:29:25;100663.88;;;24.21;100.00
43757;BME280;73222;41.866;12.462;2023-10-31T11:31:55;100657.75;;;24.37;94.63
43757;BME280;73222;41.866;12.462;2023-10-31T11:34:21;100653.09;;;24.42;98.53
43757;BME280;73222;41.866;12.462;2023-10-31T11:36:47;100649.13;;;23.82;100.00
43757;BME280;73222;41.866;12.462;2023-10-31T11:39:18;100650.72;;;25.18;96.62
43757;BME280;73222;41.866;12.462;2023-10-31T11:41:49;100634.41;;;26.30;80.26
43757;BME280;73222;41.866;12.462;2023-10-31T11:44:22;100639.84;;;25.69;69.62
43757;BME280;73222;41.866;12.462;2023-10-31T11:46:50;100643.47;;;25.97;70.04
43757;BME280;73222;41.866;12.462;2023-10-31T11:49:17;100630.16;;;26.28;69.33
43757;BME280;73222;41.866;12.462;2023-10-31T11:51:46;100630.59;;;27.06;64.57
43757;BME280;73222;41.866;12.462;2023-10-31T11:54:13;100637.53;;;26.23;73.66
43757;BME280;73222;41.866;12.462;2023-10-31T11:56:39;100639.06;;;27.11;63.50
43757;BME280;73222;41.866;12.462;2023-10-31T11:59:04;100632.97;;;26.39;68.29
43757;BME280;73222;41.866;12.462;2023-10-31T12:01:32;100630.78;;;26.88;66.72
43757;BME280;73222;41.866;12.462;2023-10-31T12:03:58;100637.25;;;26.84;65.94
43757;BME280;73222;41.866;12.462;2023-10-31T12:06:23;100630.88;;;26.44;73.21
43757;BME280;73222;41.866;12.462;2023-10-31T12:08:49;100634.38;;;26.01;79.92
43757;BME280;73222;41.866;12.462;2023-10-31T12:11:20;100641.47;;;25.86;74.74
43757;BME280;73222;41.866;12.462;2023-10-31T12:13:59;100647.72;;;28.46;53.37
43757;BME280;73222;41.866;12.462;2023-10-31T12:16:27;100639.91;;;26.27;73.74
43757;BME280;73222;41.866;12.462;2023-10-31T12:19:03;100643.28;;;26.44;74.26
43757;BME280;73222;41.866;12.462;2023-10-31T12:21:47;100636.31;;;25.54;85.96
43757;BME280;73222;41.866;12.462;2023-10-31T12:24:16;100639.97;;;26.40;77.10
43757;BME280;73222;41.866;12.462;2023-10-31T12:26:42;100635.34;;;26.86;73.52